createdAt,value
2018-12-29T00:00:59.381Z,65.03
2018-12-29T00:03:27.562Z,55.73
2018-12-29T00:05:55.701Z,56.37
2018-12-29T00:08:23.848Z,56.97
2018-12-29T00:10:52.033Z,54.30
2018-12-29T00:13:20.189Z,53.37
2018-12-29T00:15:48.359Z,52.90
2018-12-29T00:18:16.553Z,56.80
2018-12-29T00:20:44.705Z,49.50
2018-12-29T00:23:12.921Z,52.73
2018-12-29T00:25:41.094Z,52.90
2018-12-29T00:28:09.241Z,51.10
2018-12-29T00:30:37.386Z,53.67
2018-12-29T00:33:05.561Z,45.77
2018-12-29T00:35:34.597Z,49.00
2018-12-29T00:38:02.775Z,50.57
2018-12-29T00:40:30.953Z,46.30
2018-12-29T00:42:59.097Z,47.67
2018-12-29T00:45:27.242Z,46.43
2018-12-29T00:47:55.418Z,47.40
2018-12-29T00:50:23.567Z,43.87
2018-12-29T00:52:51.711Z,40.07
2018-12-29T00:55:19.889Z,43.27
2018-12-29T00:57:48.042Z,45.60
2018-12-29T01:00:16.189Z,47.98
2018-12-29T01:02:44.367Z,41.07
2018-12-29T01:05:13.525Z,38.10
2018-12-29T01:07:41.625Z,38.20
2018-12-29T01:10:09.798Z,36.83
2018-12-29T01:12:37.945Z,36.67
2018-12-29T01:15:09.939Z,41.73
2018-12-29T01:17:35.909Z,41.67
2018-12-29T01:20:04.629Z,44.47
2018-12-29T01:22:32.797Z,35.67
2018-12-29T01:25:02.138Z,41.17
2018-12-29T01:27:30.289Z,39.43
2018-12-29T01:29:58.440Z,36.63
2018-12-29T01:32:26.611Z,34.77
2018-12-29T01:34:54.763Z,38.60
2018-12-29T01:37:22.984Z,35.77
2018-12-29T01:39:51.160Z,37.57
2018-12-29T01:42:19.306Z,41.43
2018-12-29T01:44:47.443Z,33.80
2018-12-29T01:47:15.878Z,36.03
2018-12-29T01:49:44.021Z,35.47
2018-12-29T01:52:12.306Z,33.03
2018-12-29T01:54:40.592Z,33.27
2018-12-29T01:57:09.403Z,30.27
2018-12-29T01:59:37.553Z,34.90
2018-12-29T02:02:05.775Z,29.40
2018-12-29T02:04:33.926Z,34.93
2018-12-29T02:07:02.081Z,37.28
2018-12-29T02:09:30.262Z,33.97
2018-12-29T02:11:58.401Z,34.33
2018-12-29T02:14:26.545Z,31.27
2018-12-29T02:16:54.730Z,31.43
2018-12-29T02:19:22.929Z,30.40
2018-12-29T02:21:51.098Z,29.73
2018-12-29T02:24:19.265Z,31.33
2018-12-29T02:26:47.410Z,29.30
2018-12-29T02:29:15.571Z,27.83
2018-12-29T02:31:43.730Z,27.10
2018-12-29T02:34:11.880Z,28.93
2018-12-29T02:36:40.030Z,33.03
2018-12-29T02:39:09.599Z,31.20
2018-12-29T02:41:37.744Z,30.97
2018-12-29T02:44:05.885Z,28.30
2018-12-29T02:46:34.062Z,29.40
2018-12-29T02:49:02.205Z,34.87
2018-12-29T02:51:30.351Z,33.03
2018-12-29T02:53:58.549Z,34.07
2018-12-29T02:56:26.701Z,31.17
2018-12-29T02:58:54.835Z,34.17
2018-12-29T03:01:23.113Z,31.97
2018-12-29T03:03:51.265Z,29.40
2018-12-29T03:06:19.406Z,30.00
2018-12-29T03:08:48.772Z,38.10
2018-12-29T03:11:16.927Z,40.53
2018-12-29T03:13:45.073Z,27.47
2018-12-29T03:16:13.545Z,26.43
2018-12-29T03:18:42.662Z,30.53
2018-12-29T03:21:10.761Z,34.03
2018-12-29T03:23:38.925Z,29.30
2018-12-29T03:26:07.079Z,35.10
2018-12-29T03:28:35.223Z,28.60
2018-12-29T03:31:03.756Z,33.27
2018-12-29T03:33:31.905Z,30.67
2018-12-29T03:36:00.049Z,28.93
2018-12-29T03:38:28.245Z,30.03
2018-12-29T03:40:56.381Z,33.67
2018-12-29T03:43:24.533Z,31.93
2018-12-29T03:45:52.723Z,29.10
2018-12-29T03:48:20.876Z,29.13
2018-12-29T03:50:49.018Z,34.37
2018-12-29T03:53:17.229Z,30.23
2018-12-29T03:55:45.369Z,35.80
2018-12-29T03:58:13.523Z,33.10
2018-12-29T04:00:41.970Z,33.00
2018-12-29T04:03:11.298Z,32.93
2018-12-29T04:05:39.449Z,32.10
2018-12-29T04:08:07.626Z,38.60
2018-12-29T04:10:35.785Z,33.23
2018-12-29T04:13:03.927Z,30.47
2018-12-29T04:15:32.398Z,36.67
2018-12-29T04:18:00.551Z,29.87
2018-12-29T04:20:28.696Z,32.37
2018-12-29T04:22:56.947Z,32.83
2018-12-29T04:25:25.026Z,33.83
2018-12-29T04:27:53.173Z,28.57
2018-12-29T04:30:21.351Z,36.37
2018-12-29T04:32:49.496Z,40.43
2018-12-29T04:35:17.655Z,32.53
2018-12-29T04:37:46.154Z,36.90
2018-12-29T04:40:14.305Z,38.33
2018-12-29T04:42:44.811Z,35.80
2018-12-29T04:45:13.709Z,29.43
2018-12-29T04:47:41.854Z,34.97
2018-12-29T04:50:09.993Z,34.77
2018-12-29T04:52:38.583Z,31.50
2018-12-29T04:55:06.727Z,34.13
2018-12-29T04:57:34.874Z,41.60
2018-12-29T05:00:03.117Z,39.13
2018-12-29T05:02:31.269Z,32.90
2018-12-29T05:04:59.421Z,37.73
2018-12-29T05:07:27.595Z,33.63
2018-12-29T05:09:55.748Z,35.57
2018-12-29T05:12:23.896Z,36.97
2018-12-29T05:14:52.066Z,35.67
2018-12-29T05:17:20.210Z,36.93
2018-12-29T05:19:48.350Z,38.33
2018-12-29T05:22:17.453Z,36.13
2018-12-29T05:24:45.601Z,35.73
2018-12-29T05:27:13.770Z,39.63
2018-12-29T05:29:41.929Z,42.07
2018-12-29T05:32:10.073Z,36.40
2018-12-29T05:34:38.349Z,43.60
2018-12-29T05:37:06.538Z,39.73
2018-12-29T05:39:34.681Z,41.53
2018-12-29T05:42:05.130Z,47.70
2018-12-29T05:44:33.298Z,42.73
2018-12-29T05:47:01.458Z,47.97
2018-12-29T05:49:32.618Z,42.30
2018-12-29T05:52:00.792Z,41.83
2018-12-29T05:54:28.934Z,43.80
2018-12-29T05:56:57.089Z,47.63
2018-12-29T05:59:25.275Z,48.33
2018-12-29T06:01:53.421Z,48.73
2018-12-29T06:04:21.568Z,49.83
2018-12-29T06:06:49.750Z,46.50
2018-12-29T06:09:19.250Z,48.67
2018-12-29T06:11:47.398Z,47.57
2018-12-29T06:14:15.572Z,43.97
2018-12-29T06:16:44.586Z,43.13
2018-12-29T06:19:12.725Z,47.43
2018-12-29T06:21:40.902Z,54.77
2018-12-29T06:24:09.040Z,47.53
2018-12-29T06:26:37.186Z,51.07
2018-12-29T06:29:05.350Z,48.70
2018-12-29T06:31:33.493Z,46.67
2018-12-29T06:34:01.649Z,52.40
2018-12-29T06:36:29.829Z,49.40
2018-12-29T06:38:57.973Z,49.07
2018-12-29T06:41:26.123Z,45.00
2018-12-29T06:43:55.649Z,43.40
2018-12-29T06:46:23.799Z,48.90
2018-12-29T06:48:51.946Z,56.33
2018-12-29T06:51:20.133Z,47.43
2018-12-29T06:53:48.290Z,47.13
2018-12-29T06:56:16.449Z,45.90
2018-12-29T06:58:46.221Z,40.23
2018-12-29T07:01:14.372Z,43.23
2018-12-29T07:03:42.514Z,45.17
2018-12-29T07:06:10.698Z,38.87
2018-12-29T07:08:38.849Z,42.70
2018-12-29T07:11:06.991Z,46.80
2018-12-29T07:13:35.195Z,47.47
2018-12-29T07:16:04.266Z,45.60
2018-12-29T07:18:32.401Z,46.13
2018-12-29T07:21:00.594Z,47.23
2018-12-29T07:23:28.737Z,39.13
2018-12-29T07:25:56.897Z,46.57
2018-12-29T07:28:25.066Z,47.70
2018-12-29T07:30:53.209Z,43.07
2018-12-29T07:33:21.370Z,40.93
2018-12-29T07:35:49.565Z,40.77
2018-12-29T07:38:17.714Z,42.93
2018-12-29T07:40:45.866Z,45.30
2018-12-29T07:43:14.041Z,43.80
2018-12-29T07:45:42.185Z,42.53
2018-12-29T07:48:10.339Z,44.80
2018-12-29T07:50:38.509Z,47.17
2018-12-29T07:53:06.675Z,44.60
2018-12-29T07:55:34.821Z,43.63
2018-12-29T07:58:06.334Z,47.67
2018-12-29T08:00:37.175Z,41.50
2018-12-29T08:03:08.319Z,44.37
2018-12-29T08:05:40.385Z,47.47
2018-12-29T08:08:11.528Z,45.73
2018-12-29T08:10:43.590Z,48.10
2018-12-29T08:13:16.267Z,52.63
2018-12-29T08:15:49.075Z,47.40
2018-12-29T08:18:20.097Z,50.27
2018-12-29T08:20:52.776Z,47.90
2018-12-29T08:23:25.149Z,46.80
2018-12-29T08:25:55.678Z,50.97
2018-12-29T08:28:26.824Z,41.63
2018-12-29T08:30:58.889Z,49.43
2018-12-29T08:33:31.260Z,51.67
2018-12-29T08:36:03.329Z,48.37
2018-12-29T08:38:35.082Z,49.67
2018-12-29T08:41:07.579Z,43.20
2018-12-29T08:43:38.908Z,44.90
2018-12-29T08:46:09.438Z,47.07
2018-12-29T08:48:41.195Z,48.03
2018-12-29T08:51:13.262Z,50.83
2018-12-29T08:53:44.713Z,48.63
2018-12-29T08:56:16.469Z,45.50
2018-12-29T08:58:44.813Z,47.30
2018-12-29T09:01:12.961Z,42.73
2018-12-29T09:03:41.133Z,47.67
2018-12-29T09:06:09.284Z,49.93
2018-12-29T09:08:37.425Z,50.13
2018-12-29T09:11:05.594Z,48.17
2018-12-29T09:13:36.161Z,43.53
2018-12-29T09:16:04.665Z,46.80
2018-12-29T09:18:32.840Z,46.13
2018-12-29T09:21:00.994Z,46.30
2018-12-29T09:23:29.153Z,52.07
2018-12-29T09:25:59.957Z,42.50
2018-12-29T09:28:28.109Z,46.47
2018-12-29T09:30:56.251Z,48.20
2018-12-29T09:33:24.420Z,43.33
2018-12-29T09:35:52.576Z,43.73
2018-12-29T09:38:21.214Z,44.50
2018-12-29T09:40:49.381Z,41.17
2018-12-29T09:43:17.529Z,48.67
2018-12-29T09:45:45.721Z,50.87
2018-12-29T09:48:13.850Z,48.23
2018-12-29T09:50:42.910Z,42.83
2018-12-29T09:53:11.059Z,44.03
2018-12-29T09:55:39.367Z,47.13
2018-12-29T09:58:07.518Z,44.40
2018-12-29T10:00:35.662Z,45.60
2018-12-29T10:03:03.851Z,44.83
2018-12-29T10:05:32.003Z,40.87
2018-12-29T10:08:00.145Z,42.17
2018-12-29T10:10:28.818Z,47.67
2018-12-29T10:12:58.826Z,36.40
2018-12-29T10:15:27.001Z,37.23
2018-12-29T10:17:56.734Z,37.87
2018-12-29T10:20:24.895Z,40.17
2018-12-29T10:22:53.037Z,40.77
2018-12-29T10:25:21.224Z,39.37
2018-12-29T10:27:49.366Z,40.50
2018-12-29T10:30:17.523Z,37.70
2018-12-29T10:32:45.721Z,39.13
2018-12-29T10:35:14.597Z,35.33
2018-12-29T10:37:42.749Z,38.53
2018-12-29T10:40:10.924Z,37.80
2018-12-29T10:42:39.078Z,36.70
2018-12-29T10:45:09.095Z,37.37
2018-12-29T10:47:37.266Z,41.37
2018-12-29T10:50:06.101Z,36.00
2018-12-29T10:52:34.253Z,36.57
2018-12-29T10:55:02.505Z,37.83
2018-12-29T10:57:30.652Z,39.10
2018-12-29T10:59:58.799Z,34.27
2018-12-29T11:02:26.975Z,34.40
2018-12-29T11:04:55.129Z,36.30
2018-12-29T11:07:23.274Z,38.43
2018-12-29T11:09:51.761Z,34.63
2018-12-29T11:12:19.913Z,40.70
2018-12-29T11:14:48.062Z,35.70
2018-12-29T11:17:16.310Z,42.80
2018-12-29T11:19:44.454Z,37.97
2018-12-29T11:22:12.598Z,34.90
2018-12-29T11:24:40.770Z,36.77
2018-12-29T11:27:10.405Z,41.23
2018-12-29T11:29:38.566Z,39.17
2018-12-29T11:32:07.785Z,36.47
2018-12-29T11:34:35.936Z,37.57
2018-12-29T11:37:04.098Z,32.03
2018-12-29T11:39:32.246Z,36.90
2018-12-29T11:42:00.401Z,34.13
2018-12-29T11:44:28.546Z,31.87
2018-12-29T11:46:56.717Z,36.27
2018-12-29T11:49:24.861Z,38.13
2018-12-29T11:51:53.005Z,40.30
2018-12-29T11:54:21.180Z,41.17
2018-12-29T11:56:49.329Z,41.60
2018-12-29T11:59:17.494Z,43.43
2018-12-29T12:01:45.672Z,43.97
2018-12-29T12:04:13.822Z,38.67
2018-12-29T12:06:41.985Z,44.27
2018-12-29T12:09:10.549Z,44.00
2018-12-29T12:11:38.709Z,45.37
2018-12-29T12:14:07.714Z,40.37
2018-12-29T12:16:35.889Z,42.10
2018-12-29T12:19:04.037Z,40.27
2018-12-29T12:21:32.182Z,39.20
2018-12-29T12:24:00.357Z,38.07
2018-12-29T12:26:28.509Z,41.90
2018-12-29T12:28:56.682Z,37.67
2018-12-29T12:31:25.472Z,41.67
2018-12-29T12:33:53.626Z,34.97
2018-12-29T12:36:21.771Z,35.10
2018-12-29T12:38:50.314Z,37.20
2018-12-29T12:41:18.966Z,33.30
2018-12-29T12:43:47.122Z,36.07
2018-12-29T12:46:15.847Z,33.00
2018-12-29T12:48:44.371Z,33.37
2018-12-29T12:51:12.502Z,28.33
2018-12-29T12:53:40.679Z,32.43
2018-12-29T12:56:08.963Z,36.17
2018-12-29T12:58:37.196Z,32.77
2018-12-29T13:01:05.995Z,27.63
2018-12-29T13:03:34.145Z,32.57
2018-12-29T13:06:02.290Z,32.10
2018-12-29T13:08:30.463Z,32.50
2018-12-29T13:10:58.607Z,28.13
2018-12-29T13:13:26.775Z,35.47
2018-12-29T13:15:55.145Z,36.43
2018-12-29T13:18:23.302Z,33.17
2018-12-29T13:20:51.456Z,29.73
2018-12-29T13:23:19.641Z,24.50
2018-12-29T13:25:47.793Z,32.20
2018-12-29T13:28:15.937Z,37.77
2018-12-29T13:30:44.110Z,28.00
2018-12-29T13:33:12.258Z,21.37
2018-12-29T13:35:40.401Z,25.10
2018-12-29T13:38:08.649Z,27.63
2018-12-29T13:40:38.446Z,20.63
2018-12-29T13:43:08.519Z,28.20
2018-12-29T13:45:36.413Z,19.47
2018-12-29T13:48:04.558Z,19.80
2018-12-29T13:50:32.701Z,21.30
2018-12-29T13:53:00.877Z,26.00
2018-12-29T13:55:29.025Z,24.83
2018-12-29T13:57:59.629Z,25.30
2018-12-29T14:00:28.042Z,18.97
2018-12-29T14:02:56.183Z,20.23
2018-12-29T14:05:25.119Z,21.73
2018-12-29T14:07:53.310Z,24.03
2018-12-29T14:10:21.474Z,26.83
2018-12-29T14:12:49.622Z,25.57
2018-12-29T14:15:17.800Z,18.53
2018-12-29T14:17:46.345Z,26.00
2018-12-29T14:20:14.498Z,23.27
2018-12-29T14:22:42.690Z,22.67
2018-12-29T14:25:11.118Z,31.73
2018-12-29T14:27:39.258Z,29.67
2018-12-29T14:30:07.642Z,31.67
2018-12-29T14:32:35.789Z,29.50
2018-12-29T14:35:04.110Z,30.37
2018-12-29T14:37:32.278Z,34.37
2018-12-29T14:40:00.421Z,32.23
2018-12-29T14:42:29.165Z,44.37
2018-12-29T14:44:57.356Z,43.93
2018-12-29T14:47:25.506Z,32.53
2018-12-29T14:49:53.645Z,38.63
2018-12-29T14:52:21.835Z,29.27
2018-12-29T14:54:52.110Z,39.93
2018-12-29T14:57:20.251Z,36.70
2018-12-29T14:59:48.558Z,33.73
2018-12-29T15:02:16.706Z,32.73
2018-12-29T15:04:44.849Z,37.70
2018-12-29T15:07:13.326Z,25.63
2018-12-29T15:09:41.470Z,28.93
2018-12-29T15:12:09.611Z,22.83
2018-12-29T15:14:37.802Z,29.57
2018-12-29T15:17:05.965Z,28.93
2018-12-29T15:19:34.107Z,22.17
2018-12-29T15:22:02.274Z,31.30
2018-12-29T15:24:30.432Z,25.93
2018-12-29T15:26:58.582Z,24.43
2018-12-29T15:29:26.754Z,23.87
2018-12-29T15:31:54.892Z,21.80
2018-12-29T15:34:23.025Z,25.63
2018-12-29T15:36:51.217Z,21.90
2018-12-29T15:39:19.757Z,18.43
2018-12-29T15:41:47.901Z,35.70
2018-12-29T15:44:17.831Z,27.07
2018-12-29T15:46:45.969Z,23.17
2018-12-29T15:49:15.083Z,27.23
2018-12-29T15:51:43.189Z,18.23
2018-12-29T15:54:11.337Z,17.77
2018-12-29T15:56:39.479Z,16.57
2018-12-29T15:59:07.650Z,19.60
2018-12-29T16:01:35.789Z,24.10
2018-12-29T16:04:06.328Z,29.27
2018-12-29T16:06:34.517Z,11.93
2018-12-29T16:09:02.668Z,24.40
2018-12-29T16:11:31.198Z,19.57
2018-12-29T16:13:59.522Z,36.27
2018-12-29T16:16:27.673Z,27.40
2018-12-29T16:18:58.951Z,22.97
2018-12-29T16:21:25.649Z,22.03
2018-12-29T16:23:53.790Z,23.57
2018-12-29T16:26:21.928Z,25.57
2018-12-29T16:28:50.154Z,25.27
2018-12-29T16:31:18.423Z,31.90
2018-12-29T16:33:53.783Z,18.97
2018-12-29T16:36:18.498Z,42.80
2018-12-29T16:38:46.745Z,24.17
2018-12-29T16:41:16.045Z,28.77
2018-12-29T16:43:44.217Z,22.50
2018-12-29T16:46:12.360Z,22.03
2018-12-29T16:48:40.500Z,27.63
2018-12-29T16:51:08.677Z,26.67
2018-12-29T16:53:36.817Z,20.13
2018-12-29T16:56:04.969Z,20.73
2018-12-29T16:58:33.135Z,18.97
2018-12-29T17:01:01.296Z,17.40
2018-12-29T17:03:29.430Z,16.30
2018-12-29T17:05:57.609Z,19.37
2018-12-29T17:08:27.204Z,16.70
2018-12-29T17:21:24.748Z,11.80
2018-12-29T17:23:52.875Z,9.77
2018-12-29T17:26:21.018Z,15.87
2018-12-29T17:28:49.228Z,14.53
2018-12-29T17:31:17.557Z,14.30
2018-12-29T17:33:45.698Z,15.27
2018-12-29T17:36:13.869Z,17.73
2018-12-29T17:38:42.147Z,23.23
2018-12-29T17:41:11.307Z,12.43
2018-12-29T17:43:39.673Z,17.70
2018-12-29T17:46:08.166Z,13.50
2018-12-29T17:48:37.218Z,18.47
2018-12-29T17:51:05.396Z,22.93
2018-12-29T17:53:34.034Z,21.33
2018-12-29T17:56:02.189Z,21.43
2018-12-29T17:58:30.361Z,18.77
2018-12-29T18:00:58.500Z,40.73
2018-12-29T18:03:26.642Z,26.33
2018-12-29T18:05:55.017Z,35.80
2018-12-29T18:08:23.172Z,25.37
2018-12-29T18:10:54.337Z,26.83
2018-12-29T18:13:22.210Z,31.10
2018-12-29T18:15:50.349Z,21.50
2018-12-29T18:18:18.493Z,35.70
2018-12-29T18:20:46.662Z,18.93
2018-12-29T18:23:14.806Z,28.90
2018-12-29T18:25:42.953Z,27.73
2018-12-29T18:28:15.335Z,15.63
2018-12-29T18:30:46.788Z,17.30
2018-12-29T18:33:20.704Z,15.80
2018-12-29T18:35:51.841Z,20.50
2018-12-29T18:38:20.207Z,17.20
2018-12-29T18:40:48.373Z,17.33
2018-12-29T18:43:17.618Z,11.60
2018-12-29T18:45:45.786Z,19.63
2018-12-29T18:48:14.385Z,15.00
2018-12-29T18:50:42.498Z,14.70
2018-12-29T18:53:10.637Z,18.77
2018-12-29T18:55:38.813Z,19.50
2018-12-29T18:58:06.961Z,19.30
2018-12-29T19:00:35.610Z,26.47
2018-12-29T19:03:03.769Z,20.73
2018-12-29T19:05:31.917Z,23.27
2018-12-29T19:08:00.089Z,21.50
2018-12-29T19:10:28.253Z,23.63
2018-12-29T19:12:56.399Z,38.77
2018-12-29T19:15:24.748Z,41.77
2018-12-29T19:17:53.076Z,25.30
2018-12-29T19:20:21.871Z,17.70
2018-12-29T19:22:50.018Z,24.90
2018-12-29T19:25:18.185Z,23.87
2018-12-29T19:27:46.335Z,20.57
2018-12-29T19:30:14.477Z,15.93
2018-12-29T19:32:42.697Z,28.33
2018-12-29T19:35:11.401Z,28.13
2018-12-29T19:37:39.538Z,24.70
2018-12-29T19:40:07.902Z,35.40
2018-12-29T19:42:36.029Z,26.33
2018-12-29T19:45:04.178Z,26.87
2018-12-29T19:47:32.492Z,20.83
2018-12-29T19:50:01.089Z,26.80
2018-12-29T19:52:29.231Z,44.57
2018-12-29T19:54:57.474Z,32.10
2018-12-29T19:57:26.148Z,22.40
2018-12-29T19:59:54.364Z,27.70
2018-12-29T20:02:22.990Z,23.43
2018-12-29T20:04:53.334Z,28.80
2018-12-29T20:07:21.401Z,24.13
2018-12-29T20:09:49.955Z,23.00
2018-12-29T20:12:18.100Z,39.33
2018-12-29T20:14:46.258Z,27.57
2018-12-29T20:17:14.813Z,18.53
2018-12-29T20:19:42.956Z,19.07
2018-12-29T20:22:11.093Z,20.67
2018-12-29T20:24:39.269Z,21.10
2018-12-29T20:27:07.410Z,22.33
2018-12-29T20:29:35.550Z,19.67
2018-12-29T20:32:03.731Z,28.63
2018-12-29T20:34:32.170Z,34.63
2018-12-29T20:37:00.309Z,24.43
2018-12-29T20:39:28.803Z,26.83
2018-12-29T20:41:56.942Z,28.33
2018-12-29T20:44:25.338Z,32.30
2018-12-29T20:46:53.505Z,21.83
2018-12-29T20:49:21.655Z,17.00
2018-12-29T20:51:49.805Z,25.33
2018-12-29T20:54:17.979Z,26.33
2018-12-29T20:56:46.122Z,25.13
2018-12-29T20:59:14.393Z,18.77
2018-12-29T21:01:42.633Z,19.87
2018-12-29T21:04:11.853Z,21.13
2018-12-29T21:06:39.999Z,20.63
2018-12-29T21:09:08.759Z,21.43
2018-12-29T21:11:36.925Z,22.03
2018-12-29T21:14:05.062Z,19.83
2018-12-29T21:16:33.746Z,19.13
2018-12-29T21:19:01.887Z,18.70
2018-12-29T21:21:30.152Z,17.40
2018-12-29T21:23:58.327Z,21.90
2018-12-29T21:26:26.465Z,29.87
2018-12-29T21:28:54.611Z,20.30
2018-12-29T21:31:23.101Z,22.20
2018-12-29T21:33:51.265Z,15.17
2018-12-29T21:36:19.440Z,16.30
2018-12-29T21:38:47.594Z,20.00
2018-12-29T21:41:15.737Z,22.07
2018-12-29T21:43:43.895Z,26.40
2018-12-29T21:46:12.170Z,21.27
2018-12-29T21:48:40.321Z,24.10
2018-12-29T21:51:08.469Z,22.57
2018-12-29T21:53:36.646Z,24.50
2018-12-29T21:56:04.792Z,26.43
2018-12-29T21:58:33.349Z,31.43
2018-12-29T22:01:01.513Z,37.40
2018-12-29T22:03:29.659Z,29.33
2018-12-29T22:05:57.798Z,27.10
2018-12-29T22:08:25.983Z,32.93
2018-12-29T22:10:54.127Z,23.07
2018-12-29T22:13:22.769Z,26.77
2018-12-29T22:15:50.930Z,19.47
2018-12-29T22:18:19.074Z,28.77
2018-12-29T22:20:47.213Z,19.40
2018-12-29T22:23:15.386Z,28.77
2018-12-29T22:25:48.136Z,27.03
2018-12-29T22:28:13.333Z,23.93
2018-12-29T22:30:41.523Z,18.13
2018-12-29T22:33:09.672Z,21.83
2018-12-29T22:35:37.809Z,22.60
2018-12-29T22:38:06.030Z,31.77
2018-12-29T22:40:34.577Z,21.60
2018-12-29T22:43:02.741Z,18.53
2018-12-29T22:45:30.917Z,20.50
2018-12-29T22:47:59.067Z,19.00
2018-12-29T22:50:27.206Z,18.37
2018-12-29T22:52:55.929Z,21.53
2018-12-29T22:55:24.173Z,16.80
2018-12-29T22:57:52.309Z,16.77
2018-12-29T23:00:22.119Z,16.13
2018-12-29T23:02:50.264Z,18.43
2018-12-29T23:05:20.182Z,21.33
2018-12-29T23:07:48.671Z,15.67
2018-12-29T23:10:16.873Z,17.73
2018-12-29T23:12:44.953Z,13.13
2018-12-29T23:15:13.120Z,18.93
2018-12-29T23:17:41.259Z,16.47
2018-12-29T23:20:12.527Z,18.80
2018-12-29T23:22:40.706Z,15.93
2018-12-29T23:25:08.846Z,12.13
2018-12-29T23:27:37.186Z,14.20
2018-12-29T23:30:05.358Z,16.20
2018-12-29T23:32:33.508Z,24.80
2018-12-29T23:35:01.655Z,17.63
2018-12-29T23:37:29.825Z,17.00
2018-12-29T23:39:58.162Z,15.57
2018-12-29T23:42:26.312Z,15.77
2018-12-29T23:44:55.509Z,20.37
2018-12-29T23:47:24.250Z,25.37
2018-12-29T23:49:52.400Z,27.53
2018-12-29T23:52:21.030Z,24.83
2018-12-29T23:54:49.310Z,21.70
2018-12-29T23:57:17.715Z,15.30
2018-12-29T23:59:46.014Z,15.77
